Timeline UpdatesTrip UpdatesNews PostsPvt Posts♥♥Travel TipsAdmin PostsConv PostsFollowed PostsChat RequestsBlog PostsPNR Posts

Disclaimer
Search
 
 
Fri Nov 28, 2014 02:18:12 ISTHomeTrainsΣChainsAtlasPNRForumGalleryNewsFAQTripsMembersLoginFeedback
No Recent News for this Train
Other Trains in the News **new
Latest...
.
Wed Mar 19, 2014 (08:57PM)
⇐ Return Journey: Train# 12850

12849/Bilaspur-Pune SF Express

NO Time-Table Change.
Sep 03 2014 (1:22PM)
Change Departure Station:
Change Arrival Station:
Post a Train Travel TipPost a Train Travel Tip **new
Post a Comment/Question/Picture/VideoPost a Comment/Question/Picture/Video
Pantry/Catering
✕ NO Pantry Car
✓ Catering Avbl
Loco/Rake Reversals
DD/Daund Junction (7);
RSA - Rake Sharing
RSA with 12851/12852 Bilaspur-Chennai central express
Rake/Coach Composition
ENG-SLR-GS-GS-S1-S2-S3-S4-S5-S6-S7-S8-S9-PC-S10-AB1-B1-B2-B3-B4-A1-GS-GS-SLR (BSP-DD); ENG-SLR-GS-GS-A1-B4-B3-B2-B1-AB1-S10-PC-S9-S8-S7-S6-S5-S4-S3-S2-S1-GS-GS-SLR (DD-PUNE); Entry# 977237
Loco
BSP-MMR: BSL WAP/M-4; MMR-PUNE: PUNE WDM 3A/D
News    PNR    Forum    Time-Table    Availability    Fare Chart    Map    Arr/Dep History    Trips    Gallery    ΣChains    X/O    Timeline    
Travel Time: 1h 30m    0 halts    Distance: 76 km    Avg Speed: 50 km/hr
Type: SuperFast
Zone: SECR/South East Central
Departs @ 08:15 (Avg 3m late)
Platform# 2
     F 
Daund Junction/DD 
Arrives @ 09:45 (Avg 9m late)
Platform# 6
     F 
Pune Junction/PUNE 

0 halts. 13 intermediate Stations between Daund Junction and Pune Junction

Hide intermediate Stations  

#TrkCodeStation NameX/OArrivesAvgDepartsAvgHaltPFDay#KmSpeedElevZoneAddress
1/==/BSPBilaspur Junction (8)  -11:35+071-1227.277271mSECRBilaspur, Chhattisgarh
1.1/==/DPHDadhapara (3)  11:40-11:40-  1-1220.6 77272mSECRBilaspur, Chhattisgarh
1.2/==/CHBTChakarbhathaX  11:43-11:43-  1-1217.5 77285mSECRBilaspur, Chhattisgarh
1.3/==/BYLBelha  11:47-11:47-  1-1211.7 77269mSECRCollege Road, Chhattisgarh
1.4/==/DGSDagori  11:53-11:53-  1-1204.0 77254mSECRCollege Road, Chhattisgarh
1.5/==/NPINipania  12:00-12:00-  1-1195.8 77259mSECRNational Highway 200, Chhattisgarh
2/==/BYTBhatapara (4)X  12:11+1112:13+162m21-1181.068270mSECRBanjari Road, Chhattisgarh
2.1/==/HNHathbandh  12:27-12:27-  1-1165.7 68283mSECRRaipur, Chhattisgarh
2.2/==/TLDTilda (3)  12:36-12:36-  1-1155.0 68293mSECRBanjari Rd, Chhattisgarh
2.3/==/BKTHBaikunth  12:42-12:42-  1-1148.9 68287mSECRBanjari Rd, Chhattisgarh
2.4/==/SLHSiliariX  12:49-12:49-  1-1140.5 68280mSECRBanjari Rd, Chhattisgarh
2.5/==/MDHMandhar  12:57-12:57-  1-1130.9 68281mSECRDonde Kalan, Chhattisgarh
2.6/==/URKUrkura  13:05-13:05-  1-1122.4 68275mSECRRaipur, Chhattisgarh
2.7/==/WRCWRS Colony PH  13:08-13:08-  1-1119.4 68286mSECRRaipur, Chhattisgarh
3/==/RRaipur Junction (6)  13:10+1413:20+1210m31-1116.840297mSECRRaipur, Chhattisgarh
3.1/==/SRWNSaraswatinagar (2)X  13:23-13:23-  1-1114.5 40291mSECRRaipur, Chhattisgarh
3.2/==/SZBSarona Cabin (2)  13:29-13:29-  1-1110.5 40282mSECRRaipur, Chhattisgarh
3.3/==/KMIKumhari (2)  13:38-13:38-  1-1104.4 40287mSECRKumhari, Chhattisgarh
3.4/==/CABNBhilai CabinX  13:43-13:43-  1-1101.2 40296mSECRBhilai, Chhattisgarh
3.5/==/DBECDevbaloda Charoda  13:50-13:50-  1-1096.9 40310mSECRBhilai, Chhattisgarh
3.6/==/BIABhilai (2)X  13:55-13:55-  1-1093.4 40309mSECRBhilai, Chhattisgarh
3.7/==/BPHBBhilai Power House (3)  14:02-14:02-  1-1088.8 40312mSECRBhilai, Chhattisgarh
3.8/==/BQRBhilai Nagar (2)X  14:08-14:08-  1-1084.3 40298mSECRBhilai, Chhattisgarh
4/==/DURGDurg Junction (6)X  14:15+314:20+45m11-1079.887299mSECRPh: 91-788-2322059, Chhattisgarh
4.1/==/RSMRasmaraX  14:26-14:26-  1-1071.8 87292mSECRRasmada, Chhattisgarh
4.2/==/MUPMurhipar  14:31-14:31-  1-1064.3 87319mSECRRajnandgaon, Chhattisgarh
4.3/==/PMSParmalkasaX  14:36-14:36-  1-1057.3 87300mSECRRajnandgaon, Chhattisgarh
5/==/RJNRaj Nandgaon (3)  14:41+1314:43+142m21-1049.474313mSECRRajnandgaon, Chhattisgarh
5.1/==/BAKLBakal  14:52-14:52-  1-1038.8 74318mSECRRajnandgaon, Chhattisgarh
5.2/==/MUAMusra  14:58-14:58-  1-1031.0 74323mSECRRajnandgaon, Chhattisgarh
5.3/==/JTRJatkanhar  15:03-15:03-  1-1024.4 74330mSECRRajnandgaon, Chhattisgarh
5.4/==/DGGDongargarh (2)  15:09-15:09-  1-1017.8 74353mSECRDongargarh, Chhattisgarh
5.5/==/PJBPaniajob (2)  15:15-15:15-  1-1010.2 74363mSECRRajnandgaon, Chhattisgarh
5.6/==/BTLBortalao (2)  15:22-15:22-  1-1001.3 74409mSECRRajnandgaon, Chhattisgarh
5.7/==/DKSDarekasa (2)X  15:28-15:28-  1-993.6 74381mSECRRajnandgaon, Chhattisgarh
5.8/==/SKSSalekasa (2)  15:38-15:38-  1-982.1 74312mSECRRajnandgaon, Chhattisgarh
5.9/==/DNLDhanoli (2)  15:44-15:44-  1-974.6 74310mSECRAmgaon, Maharashtra
5.10/==/AGNAmgaon (2)  15:50-15:50-  1-967.4 74317mSECRGondia, Maharashtra
5.11/==/GDMGudma (2)X  15:58-15:58-  1-956.5 74323mSECRGondia, Maharashtra
6/==/GGondia Junction (7)  16:08+1816:10+182m--1-944.660316mSECRGondia 441601, Maharashtra
6.1/==/GJGangajhari (3)X  16:24-16:24-  1-930.4 60315mSECRGondia District, Maharashtra
6.2/==/KWNKachewani (3)  16:32-16:32-  1-922.1 60303mSECRKachewani Gondia District, Maharashtra
6.3/==/TROTirora (3)  16:39-16:39-  1-915.3 60282mSECRDist Gondia, Maharashtra
6.4/==/MNUMundikota (2)  16:49-16:49-  1-905.2 60269mSECRBhandara, Maharashtra
6.5/==/TMRTumsar Road (5)  17:00-17:00-  1-894.9 60267mSECRDistt. Bhandara, Maharashtra
6.6/==/KOKAKoka (2)  17:10-17:10-  1-884.8 60259mSECRBhandara, Maharashtra
6.7/==/BRDBhandara Road (3)  17:18-17:18-  1-877.0 60266mSECRState Highway 252 Bhandara District, Maharashtra
6.8/==/KHATKhat (2)  17:28-17:28-  1-867.0 60286mSECRNagpur, Maharashtra
6.9/==/RRLRewral (2)  17:37-17:37-  1-858.0 60293mSECRNagpur Distt, Maharashtra
6.10/==/TARTharsa (3)  17:42-17:42-  1-852.4 60292mSECRNagpur, Maharashtra
6.11/==/CHCRChacher (3)  17:49-17:49-  1-846.1 60284mSECRNagpur, Maharashtra
6.12/==/SALSalwa (2)  17:55-17:55-  1-839.5 60289mSECRNagpur, Maharashtra
6.13/==/KNHNKanhan Junction (3)  18:01-18:01-  1-833.8 60288mSECRKanhan, Maharashtra
6.14/==/KPKamptee (3)X  18:06-18:06-  1-829.0 60290mSECRKamptee, Maharashtra
6.15/==/KAVKalamna (3)  18:13-18:13-  1-821.4 60296mSECRNagpur, Maharashtra
6.16/==/ITRItwari (3)  18:16-18:16-  1-818.5 60306mSECRNagpur, Maharashtra
7/==/NGPNagpur Junction (8)  18:20+1118:35+915m51-814.771314mCRNagpur 440001, Maharashtra
7.1/==/MIBNagpur Moti Bagh (1)  18:36-18:36-  1-813.9 71309mCRNagpur, Maharashtra
7.2/==/AJNIAjni (3)X  18:38-18:38-  1-811.7 71310mCRNagpur 440003, Maharashtra
7.3/==/KRIKhapri (2)  18:45-18:45-  1-802.4 71312mCRNagpur, Maharashtra
7.4/==/GMGGumgaon (2)X  18:51-18:51-  1-795.8 71302mCRNagpur, Maharashtra
7.5/==/BTBRButi Bori (4)X  18:58-18:58-  1-787.1 71269mCRButi Bori, Maharashtra
7.6/==/BOKBorkhedi  19:05-19:05-  1-779.3 71268mCRWardha, Maharashtra
7.7/==/SNISindi (2)  19:15-19:15-  1-767.8 71258mCRWardha, Maharashtra
7.8/==/TGPTuljapur (2)X  19:22-19:22-  1-759.9 71259mCRTuljapur, Maharashtra
7.9/==/SLORSeloo Road  19:30-19:30-  1-749.8 71256mCRMSH3, Maharashtra
7.10/==/VADRWarud  19:37-19:37-  1-741.9 71261mCRSewagram, Maharashtra
7.11/==/SEGMSewagram Junction (5)X  19:40-19:40-  1-738.5 71279mCRWardha, Maharashtra
8/==/WRWardha Junction (4)X  19:42+1819:45+173m21-735.854289mCRWardha 442001, Maharashtra
8.1/==/DAEDahegaon  20:00-20:00-  1-722.0 54275mCRMumbai Hwy, Maharashtra
8.2/==/KAOTKaotha  20:10-20:10-  1-713.0 54283mCRPulgaon, Maharashtra
8.3/==/PLOPulgaon Junction (3)  20:18-20:18-  1-706.3 54273mCRPulgaon, Maharashtra
8.4/==/TLNTalniX  20:28-20:28-  1-696.6 54277mCRPulgaon, Maharashtra
8.5/==/DMNDhamangaon (2)  20:40-20:40-  1-686.3 54300mCRDhamangaon, Maharashtra
8.6/==/DIPDipore  20:51-20:51-  1-676.1 54322mCRState Highway 243, Maharashtra
8.7/==/CNDChandur (2)  20:58-20:58-  1-669.6 54331mCRAmravati Distt, Maharashtra
8.8/==/MLRMalkhedX  21:13-21:13-  1-656.6 54342mCRLalkhed, Maharashtra
8.9/==/TMTTimtala  21:21-21:21-  1-649.3 54350mCRAmravati, Maharashtra
9/==/BDBadnera Junction (4)  21:30+1421:33+153m11-640.991335mCRBadnera (Amravati) 444701, Maharashtra
9.1/==/TKITakliX  21:39-21:39-  1-632.4 91331mCRBadnera, Maharashtra
9.2/==/KUMKuram  21:44-21:44-  1-624.7 91308mCRAkola, Maharashtra
9.3/==/MNDAMandura  21:49-21:49-  1-617.2 91303mCRMurtizapur, Maharashtra
9.4/==/MANAMana (2)  21:53-21:53-  1-611.2 91294mCRMANA dist Akola, Maharashtra
9.5/==/MZRMurtizapur (3)  22:01-22:01-  1-599.1 91303mCRMurtajapur, Maharashtra
9.6/==/KTPKatepurna  22:07-22:07-  1-588.7 91292mCRNational Highway 6, Maharashtra
9.7/==/BGNBorgaon  22:13-22:13-  1-579.9 91304mCRAkola, Maharashtra
9.8/==/YADYeulkhedX  22:20-22:20-  1-569.1 91297mCRAkola, Maharashtra
10/==/AKAkola Junction (7)  22:25+2322:30+245m11-561.970284mCRAkola-444001, Maharashtra
10.1/==/GAOGaigaon (2)  22:41-22:41-  1-549.6 70301mCRAkola, Maharashtra
10.2/==/PSParas (2)  22:47-22:47-  1-541.9 70282mCRAkola, Maharashtra
10.3/==/NGZS K Nagjihari (2)  22:55-22:55-  1-532.6 70274mCRDist. Akola, Maharashtra
10.4/==/SEGShegaon (2)  23:02-23:02-  1-524.7 70281mCRShegaon 444203, Maharashtra
10.5/==/JMJalamb Junction (3)  23:13-23:13-  1-512.3 70259mCRJalamb, Maharashtra
10.6/==/NNNandura (2)  23:23-23:23-  1-500.1 70267mCRNandura, Maharashtra
10.7/==/KJLKhumgaon BurtiX  23:29-23:29-  1-492.7 70253mCRBuldhana, Maharashtra
10.8/==/BISBiswa Bridge  23:35-23:35-  1-486.4 70252mCRBuldhana, Maharashtra
10.9/==/WADOWadoda  23:40-23:40-  1-480.2 70252mCRNH 6, Maharashtra
10.10/==/MKUMalkapur (2)  23:47-23:47-  1-472.2 70252mCRMalkapur, Maharashtra
10.11/==/KMKDKhamkhed  23:55-23:55-  1-463.6 70252mCRMalkapur, Maharashtra
10.12/==/KLHDKolhadi  00:00-00:00-  2-457.0 70278mCRMalkapur, Maharashtra
10.13/==/BDWDBodwad (2)  00:04-00:04-  2-452.6 70294mCRBodwad, Maharashtra
10.14/==/ACGAchegaon  00:14-00:14-  2-440.7 70234mCRVarangaon, Maharashtra
10.15/==/VNAVarangaon (3)  00:19-00:19-  2-435.0 70220mCRVarangaon, Maharashtra
10.16/==/BSCNBhusaval C Cabin  00:26-00:26-  2-426.5 70219mCRBhusawal, Maharashtra
11/==/BSLBhusaval Junction (8)X  00:30+2500:45+2515m42-422.356208mCRBhusaval 425201, Maharashtra
11.1/==/BDIBhadli (2)  00:59-00:59-  2-409.7 56211mCRBhadli, Maharashtra
11.2/==/TRWTarsod  01:06-01:06-  2-402.9 56206mCRAsoda - Tarsod Road, Maharashtra
12/==/JLJalgaon Junction (4)X  01:11+1701:12+181m22-398.275213mCRJalgaon 425001, Maharashtra
12.1/==/SSShirsoli (2)X  01:21-01:21-  2-386.4 75211mCRShirsoli, Maharashtra
12.2/==/MWDMhasavad (3)X  01:29-01:29-  2-377.1 75220mCRMhasavad, Maharashtra
12.3/==/MYJMaheji (2)  01:38-01:38-  2-365.3 75247mCRJalgaon, Maharashtra
12.4/==/PHQPardhande (2)X  01:44-01:44-  2-357.9 75243mCRPardhande, Maharashtra
12.5/==/PCPachora Junction (4)X  01:50-01:50-  2-350.5 75264mCRPachora 424201, Maharashtra
12.6/==/GAAGalan (2)X  01:59-01:59-  2-340.0 75282mCRGalan, Maharashtra
12.7/==/NGDNagardevla (2)  02:05-02:05-  2-331.6 75280mCRNagardevla, Maharashtra
12.8/==/KJKajgaon (3)X  02:11-02:11-  2-324.7 75297mCRKajgaon, Maharashtra
12.9/==/VGLVaghli (2)  02:19-02:19-  2-315.0 75331mCRVaghli, Maharashtra
12.10/==/CSNChalisgaon Junction (3)  02:26-02:26-  2-305.6 75352mCRChalisgaon 424101, Maharashtra
12.11/==/HPRHirapur (2)  02:32-02:32-  2-297.8 75373mCRHirapur, Maharashtra
12.12/==/RHNERohini (2)  02:40-02:40-  2-288.7 75422mCRRohini, Maharashtra
12.13/==/NINaydongri (2)XO  02:43-02:43-  2-284.1 75427mCRNaydongri, Maharashtra
12.14/==/PKEPimpar Khed (2)X  02:51-02:51-  2-274.3 75462mCRPimpar Khed, Maharashtra
12.15/==/NGNNandgaon (3)X  03:00-03:00-  2-263.5 75476mCRNandgaon, Maharashtra
12.16/==/PJNPanjhan (2)  03:05-03:05-  2-257.0 75514mCRPanjhan, Maharashtra
12.17/==/HSLHisvahal (2)X  03:09-03:09-  2-251.5 75540mCRHisvahal, Maharashtra
12.18/==/PNVPanevadi (2)X  03:15-03:15-  2-243.8 75561mCRPanevadi, Maharashtra
13/==/MMRManmad Junction (6)03:20+1303:25+235m42-238.138580mCRManmad 423104, Maharashtra
13.1/-=/AAKAnkaikilaX  03:38-03:38-  2-229.8 38645mCRNasik Dist, Maharashtra
13.2/=-/ANKAnkai (3)  03:45-03:45-  2-225.2 38620mSCRDist. Nashik, Maharashtra
13.3/--/YLYeola (2)  04:10-04:10-  2-209.5 38553mCRYeola, Maharashtra
14/--/KPGKopargaon (2)X04:32+2104:33+221m12-195.976508mCRKopargaon 423601, Maharashtra
14.1/--/SNVRSanvatsar  04:39-04:39-  2-188.1 76521mCRNagpur-Aurngabad-Mumbai Hwy, Maharashtra
14.2/--/KNGNKanhegaon (2)  04:45-04:45-  2-180.5 76498mCRAhmadnagar, Maharashtra
14.3/--/PBPuntamba Junction (2)  04:52-04:52-  2-171.6 76501mCRPuntamba, Maharashtra
14.4/--/CITChitali (1)  04:59-04:59-  2-162.7 76531mCRAhmadnagar, Maharashtra
15/--/BAPBelapur (2)  05:08+3605:10+392m22-151.2101541mCRShrirampur, Maharashtra
15.1/--/NPWNipani Vadgaon (2)  05:14-05:14-  2-145.0 101531mCRChitali, Maharashtra
15.2/--/PDGNPadhegaon (1)  05:17-05:17-  2-139.1 101512mCRBelapur, Maharashtra
15.3/--/TKMYTaklimiya (1)  05:23-05:23-  2-130.0 101511mCRVambori, Maharashtra
15.4/--/RRIRahuri (2)  05:26-05:26-  2-124.8 101519mCRAhmadnagar, Maharashtra
15.5/--/VBRVambori (1)X  05:34-05:34-  2-111.6 101547mCRAhmadnagar, Maharashtra
15.6/--/DAHDehare  05:38-05:38-  2-105.1 101578mCRAhemadnagar, Maharashtra
15.7/--/VLVilad (1)  05:41-05:41-  2-100.1 101598mCRAhmadnagar, Maharashtra
15.8/--/NNBNimblak (1)  05:46-05:46-  2-91.5 101656mCRAhmednagar, Maharashtra
16/--/ANGAhmadnagar (2)  05:50+4705:55+505m12-84.240650mCRAhmednagar 414001, Maharashtra
16.1/--/AKRAkolner (1)  06:14-06:14-  2-71.4 40689mCRAhmadnagar, Maharashtra
16.2/--/SRLSarola (2)  06:23-06:23-  2-65.6 400mCRAhmadnagar, Maharashtra
16.3/--/RNJDRanjangaon Road (1)  06:38-06:38-  2-55.2 40656mCRDist. Pune, Maharashtra
16.4/--/VPRVisapur (2)X  06:47-06:47-  2-49.0 40186mCRAhmadnagar, Maharashtra
16.5/--/BWDBelwandi (2)  07:08-07:08-  2-35.3 40592mCRAhmadnagar, Maharashtra
16.6/--/SGNDShrigonda Road (2)  07:29-07:29-  2-21.2 40547mCRAhmadnagar, Maharashtra
16.7/--/KSTHKashti (2)  07:41-07:41-  2-12.9 40540mCRDaund, Maharashtra
16.8/-=%DDJADaund Goods Yard (2)X  07:57-07:57-  2-1.9 40515mCRNew Daund, Maharashtra
16.9%==%DDAMDaund Marshalling Yard  07:59-07:59-  2-0.9 40517mCROld Daund, Maharashtra
17|-=%DDDaund Junction (7)»O↵¶08:00+008:15+315m220.050521mCRNew Daund Dist. Pune 413801, Maharashtra
17.1%==%DDAMDaund Marshalling Yard  08:16-08:16-  20.7 50517mCROld Daund, Maharashtra
17.2%==%DDJADaund Goods Yard (2)  08:17-08:17-  21.7 50515mCRNew Daund, Maharashtra
17.3%==%DDAPDaund Patas Road  08:18-08:18-  22.7 50519mCRDaund, Maharashtra
17.4%==%PAAPatas (3)X  08:29-08:29-  211.6 50532mCRDist. Pune 412219, Maharashtra
17.5%==%KDTNKadethan  08:35-08:35-  216.4 50532mCRDaund, Maharashtra
17.6%==%KDGKedgaon (2)X  08:41-08:41-  221.5 50544mCRDist. Pune 412203, Maharashtra
17.7%==%KTTKhutbav (2)  08:48-08:48-  227.9 50558mCRShirur-Daund Rd Daund, Maharashtra
17.8%==%YTYevat (2)X  08:56-08:56-  234.2 50558mCRDist. Pune 412214, Maharashtra
17.9%==%URIUruli (2)X  09:11-09:11-  246.8 50553mCRDist. Pune 412202, Maharashtra
17.10%==%LONILoni (2)  09:25-09:25-  259.2 50541mCRPune 412201, Maharashtra
17.11%==%MJBKManjari Budruk (2)X  09:32-09:32-  264.8 50550mCRPune 412307, Maharashtra
17.12%==%HDPHadapsar (3)  09:38-09:38-  269.7 50554mCRPune 411028, Maharashtra
17.13%==/GPRWGhorpuri West (2)  09:42-09:42-  273.4 50552mCRPune 411001, Maharashtra
18/==/PUNEPune Junction (6)•  09:45+9-6275.6-556mCRPune 411001, Maharashtra
Scroll to Top
Scroll to Bottom